Box Elder, Montana
Current Conditions -  °F | °C
As of 1:53 AM on Friday 19 Dec 2014 (Local Time) from KHVR Reporting Station
Clear Clear  
Wind Chill: 25°   Ceiling: Unl
Heat Index: 25°   Visibility: 10mi
Dew Point: 21°   Wind: 3mph
Humidity: 85%   Direction: 260°W
Pressure: 29.89"   Gusts: NA
Location:  48.32°N, 110.01°W
Report Text: KHVR 190853Z AUTO 26003KT 10SM CLR M04/M06 A2989 RMK AO2 SLP149 T10391061 56002
Loading
Personal Weather Stations






























Interactive Weather Map New forecast layout! Learn more

10-Day Weather Forecast

Advertisements
Track Severe Weather on mobile